Time;durP1;ratioP1;P1;durP2;ratioP2;P2;SDS_P1;SDS_P2;PMS_P1;PMS_P2;Temp;Humidity;BMP_temperature;BMP_pressure;BME280_temperature;BME280_humidity;BME280_pressure;Samples;Min_cycle;Max_cycle;Signal;HPM_P1;HPM_P2
2021/09/07 08:30:34;;;;;;;;;117.80;106.80;;;;;;;;2807304;50;14233;-38
2021/09/07 08:35:23;;;;;;;;;147.20;135.40;;;;;;;;2796523;51;54887;-41
2021/09/07 08:37:48;;;;;;;;;200.67;178.67;;;;;;;;2789638;51;9939;-39
2021/09/07 08:40:13;;;;;;;;;239.50;214.75;;;;;;;;2784037;51;72581;-39
2021/09/07 08:43:26;;;;;;;;;233.50;206.00;;;;;;;;2782051;51;13636;-43
2021/09/07 08:45:55;;;;;;;;;238.75;205.50;;;;;;;;2786323;51;11099;-38
2021/09/07 08:57:05;;;;;;;;;331.75;293.00;;;;;;;;2787446;51;57121;-38
2021/09/07 09:01:08;;;;;;;;;297.75;267.25;;;;;;;;2786599;51;53553;-38
2021/09/07 09:03:34;;;;;;;;;311.75;271.50;;;;;;;;2789344;51;11602;-41
2021/09/07 09:06:00;;;;;;;;;294.25;258.75;;;;;;;;2789440;51;11535;-42
2021/09/07 09:08:26;;;;;;;;;270.75;236.25;;;;;;;;2790302;51;8775;-40
2021/09/07 09:11:03;;;;;;;;;263.25;234.50;;;;;;;;2790156;51;8755;-40
2021/09/07 09:13:39;;;;;;;;;267.50;234.75;;;;;;;;2789824;51;11451;-40
2021/09/07 09:16:06;;;;;;;;;260.00;231.50;;;;;;;;2789807;51;11517;-39
2021/09/07 09:18:33;;;;;;;;;252.75;223.75;;;;;;;;2788999;51;11395;-41
2021/09/07 09:21:17;;;;;;;;;224.00;203.50;;;;;;;;2789322;51;10971;-40
2021/09/07 09:23:46;;;;;;;;;235.00;198.75;;;;;;;;2789824;51;10568;-43
2021/09/07 09:26:12;;;;;;;;;224.75;197.25;;;;;;;;2789763;51;10180;-43
2021/09/07 09:28:38;;;;;;;;;225.00;201.75;;;;;;;;2789566;51;9868;-43
2021/09/07 09:31:05;;;;;;;;;206.00;190.50;;;;;;;;2789795;51;9411;-44
2021/09/07 09:33:33;;;;;;;;;199.33;179.00;;;;;;;;2789771;51;8788;-44
2021/09/07 09:36:01;;;;;;;;;194.25;171.00;;;;;;;;2789626;51;8869;-44
2021/09/07 09:38:28;;;;;;;;;182.75;164.75;;;;;;;;2789402;51;8791;-41
2021/09/07 09:40:56;;;;;;;;;190.75;172.00;;;;;;;;2789323;51;8767;-45
2021/09/07 09:43:23;;;;;;;;;181.25;167.50;;;;;;;;2789686;51;8885;-38
2021/09/07 09:45:50;;;;;;;;;336.33;296.00;;;;;;;;2789659;51;8759;-40
2021/09/07 09:48:23;;;;;;;;;552.00;469.50;;;;;;;;2789561;51;8782;-40
2021/09/07 09:50:53;;;;;;;;;520.80;451.80;;;;;;;;2789215;51;8763;-37
2021/09/07 09:53:20;;;;;;;;;481.20;416.60;;;;;;;;2789541;51;11677;-40
2021/09/07 09:55:47;;;;;;;;;471.60;420.40;;;;;;;;2789909;51;8779;-37
2021/09/07 09:58:17;;;;;;;;;486.75;425.25;;;;;;;;2789550;51;8771;-38
2021/09/07 10:00:46;;;;;;;;;447.00;386.80;;;;;;;;2789349;51;8771;-39
2021/09/07 10:03:13;;;;;;;;;420.00;364.75;;;;;;;;2789750;51;8768;-39
2021/09/07 10:05:40;;;;;;;;;401.20;344.00;;;;;;;;2789649;51;8775;-40
2021/09/07 10:08:06;;;;;;;;;367.25;319.50;;;;;;;;2789216;51;8751;-42
2021/09/07 10:10:33;;;;;;;;;339.00;297.33;;;;;;;;2788343;51;8899;-44
2021/09/07 10:15:33;;;;;;;;;195.75;173.75;;;;;;;;2782160;50;13486;-37
2021/09/07 10:18:27;;;;;;;;;204.00;181.00;;;;;;;;2780774;51;10207;-38
2021/09/07 10:21:02;;;;;;;;;209.25;195.25;;;;;;;;2786390;51;41238;-39
2021/09/07 10:23:53;;;;;;;;;215.67;193.33;;;;;;;;2789564;51;10889;-37
2021/09/07 10:26:37;;;;;;;;;212.67;192.00;;;;;;;;2789915;51;11922;-37
2021/09/07 10:29:13;;;;;;;;;231.00;202.00;;;;;;;;2786797;51;19556;-37
2021/09/07 10:31:38;;;;;;;;;240.00;215.00;;;;;;;;2788575;51;11253;-38
2021/09/07 10:34:04;;;;;;;;;219.75;194.50;;;;;;;;2789793;51;10188;-37
2021/09/07 10:36:31;;;;;;;;;192.00;173.33;;;;;;;;2789568;51;8787;-37
2021/09/07 10:38:57;;;;;;;;;203.25;176.75;;;;;;;;2789863;51;8756;-37
2021/09/07 10:41:29;;;;;;;;;255.50;230.75;;;;;;;;2788726;51;10195;-40
2021/09/07 10:44:17;;;;;;;;;240.50;210.00;;;;;;;;2789716;51;11084;-37
2021/09/07 10:46:44;;;;;;;;;229.75;203.00;;;;;;;;2783555;51;10152;-37
2021/09/07 10:49:17;;;;;;;;;228.00;204.00;;;;;;;;2789764;51;9709;-38
2021/09/07 10:52:02;;;;;;;;;251.75;221.00;;;;;;;;2790080;51;9578;-37
2021/09/07 10:54:27;;;;;;;;;294.25;263.50;;;;;;;;2789352;51;10576;-37
2021/09/07 10:56:56;;;;;;;;;281.00;238.50;;;;;;;;2789379;51;11583;-39
2021/09/07 10:59:40;;;;;;;;;269.50;240.75;;;;;;;;2789728;51;8827;-39
2021/09/07 11:02:26;;;;;;;;;251.00;227.50;;;;;;;;2789856;51;11454;-40
2021/09/07 11:04:51;;;;;;;;;248.00;211.50;;;;;;;;2787016;51;10863;-40
2021/09/07 11:07:32;;;;;;;;;243.50;210.25;;;;;;;;2790033;51;10417;-40
2021/09/07 11:09:58;;;;;;;;;228.67;199.00;;;;;;;;2788864;51;10158;-36
2021/09/07 11:12:30;;;;;;;;;260.75;229.25;;;;;;;;2788366;51;10061;-38
2021/09/07 11:15:01;;;;;;;;;385.00;329.50;;;;;;;;2789807;51;9878;-36
2021/09/07 11:17:27;;;;;;;;;448.25;383.00;;;;;;;;2790345;51;9396;-36
2021/09/07 11:19:59;;;;;;;;;556.25;477.75;;;;;;;;2794023;51;8778;-39
2021/09/07 11:22:31;;;;;;;;;662.40;549.00;;;;;;;;2794711;51;10282;-36
2021/09/07 11:25:06;;;;;;;;;609.80;514.60;;;;;;;;2794529;51;8785;-36
2021/09/07 11:27:50;;;;;;;;;545.00;465.20;;;;;;;;2792009;51;8748;-37
2021/09/07 11:30:25;;;;;;;;;517.00;430.80;;;;;;;;2792223;51;8741;-37
2021/09/07 11:32:54;;;;;;;;;483.60;429.20;;;;;;;;2791918;51;8866;-38
2021/09/07 11:35:19;;;;;;;;;494.50;416.50;;;;;;;;2791701;51;8742;-38
2021/09/07 11:37:45;;;;;;;;;446.75;381.00;;;;;;;;2791104;51;10483;-37
2021/09/07 16:35:24;;;;;;;;;287.00;252.50;;;;;;;;2781305;50;13534;-60
2021/09/07 16:37:50;;;;;;;;;247.00;213.25;;;;;;;;2777378;51;12165;-57
2021/09/07 16:40:16;;;;;;;;;182.33;164.00;;;;;;;;2777479;51;10741;-56
2021/09/07 16:42:42;;;;;;;;;176.25;151.75;;;;;;;;2777898;51;8781;-57
2021/09/07 16:45:08;;;;;;;;;148.00;128.25;;;;;;;;2778438;51;8773;-58
2021/09/07 16:47:34;;;;;;;;;126.20;111.60;;;;;;;;2777885;51;8773;-68
2021/09/07 16:50:01;;;;;;;;;899.50;709.33;;;;;;;;2778037;51;8783;-55
2021/09/07 16:52:27;;;;;;;;;570.60;465.00;;;;;;;;2777647;51;8756;-58
2021/09/07 16:57:19;;;;;;;;;318.50;278.75;;;;;;;;2777776;51;9481;-56
2021/09/07 16:59:47;;;;;;;;;262.50;224.50;;;;;;;;2777806;51;8776;-56
2021/09/07 17:02:13;;;;;;;;;226.00;201.00;;;;;;;;2777602;51;9497;-56
2021/09/07 17:04:39;;;;;;;;;210.00;187.67;;;;;;;;2778171;51;10373;-56
2021/09/07 17:07:05;;;;;;;;;179.25;161.25;;;;;;;;2777716;51;8765;-65
2021/09/07 17:09:31;;;;;;;;;157.67;141.00;;;;;;;;2778325;51;8808;-57
2021/09/07 17:11:57;;;;;;;;;139.50;128.25;;;;;;;;2777632;51;11669;-64
2021/09/07 17:14:23;;;;;;;;;384.67;327.33;;;;;;;;2777658;51;8805;-64
2021/09/07 17:16:49;;;;;;;;;731.80;599.80;;;;;;;;2777502;51;8780;-55
2021/09/07 17:19:15;;;;;;;;;386.25;327.75;;;;;;;;2777741;51;8777;-56
2021/09/07 17:21:41;;;;;;;;;307.50;258.75;;;;;;;;2777186;51;10691;-56
2021/09/07 17:24:07;;;;;;;;;263.00;225.25;;;;;;;;2777725;51;9524;-61
2021/09/07 17:26:33;;;;;;;;;246.75;213.50;;;;;;;;2777614;51;8773;-63
2021/09/07 22:19:02;;;;;;;;;445.60;392.60;;;;;;;;2793691;51;68881;-46
2021/09/07 22:21:29;;;;;;;;;454.60;400.40;;;;;;;;2789470;51;9883;-47
2021/09/07 22:23:54;;;;;;;;;434.25;375.50;;;;;;;;2789870;51;8764;-41
2021/09/07 22:26:21;;;;;;;;;408.20;349.60;;;;;;;;2786435;51;8868;-41
2021/09/07 22:28:46;;;;;;;;;403.00;356.00;;;;;;;;2783778;51;8762;-42
2021/09/07 22:31:12;;;;;;;;;424.80;369.60;;;;;;;;2783921;51;8860;-42
2021/09/07 22:33:38;;;;;;;;;426.80;359.20;;;;;;;;2783438;51;8764;-41
2021/09/07 22:36:04;;;;;;;;;409.75;356.00;;;;;;;;2783798;51;8774;-41
2021/09/07 22:38:30;;;;;;;;;411.60;348.20;;;;;;;;2783824;51;9403;-43
2021/09/07 22:40:56;;;;;;;;;407.50;355.75;;;;;;;;2784011;51;8786;-41
2021/09/07 22:43:22;;;;;;;;;393.00;345.25;;;;;;;;2783826;51;8774;-41
2021/09/07 22:45:48;;;;;;;;;387.20;342.00;;;;;;;;2784545;51;8781;-41
2021/09/07 22:48:14;;;;;;;;;395.67;341.33;;;;;;;;2784346;51;8767;-41
2021/09/07 22:50:40;;;;;;;;;395.60;343.40;;;;;;;;2784411;51;8782;-41
2021/09/07 22:53:05;;;;;;;;;386.00;344.50;;;;;;;;2784105;51;9113;-41
2021/09/07 22:55:31;;;;;;;;;403.00;355.20;;;;;;;;2783945;51;9395;-41
2021/09/07 22:57:57;;;;;;;;;377.25;341.50;;;;;;;;2784072;51;8783;-41
2021/09/07 23:00:23;;;;;;;;;396.40;352.20;;;;;;;;2783738;51;8792;-41
2021/09/07 23:02:49;;;;;;;;;405.80;346.80;;;;;;;;2784054;51;8770;-47
2021/09/07 23:05:15;;;;;;;;;367.80;327.20;;;;;;;;2783684;51;8802;-46
2021/09/07 23:07:40;;;;;;;;;360.60;327.00;;;;;;;;2783777;51;8778;-47
2021/09/07 23:10:07;;;;;;;;;392.60;346.00;;;;;;;;2783792;51;8774;-46
2021/09/07 23:12:34;;;;;;;;;371.60;330.40;;;;;;;;2783873;51;8769;-47
2021/09/07 23:15:00;;;;;;;;;370.50;315.50;;;;;;;;2783888;51;8770;-46
2021/09/07 23:17:26;;;;;;;;;379.75;330.00;;;;;;;;2783752;51;10360;-47
2021/09/07 23:19:52;;;;;;;;;369.25;328.75;;;;;;;;2783911;51;8880;-46
2021/09/07 23:22:19;;;;;;;;;371.67;321.33;;;;;;;;2783931;51;9416;-47
2021/09/07 23:24:44;;;;;;;;;371.50;329.25;;;;;;;;2783828;51;8785;-47
2021/09/07 23:27:10;;;;;;;;;347.75;309.00;;;;;;;;2783026;51;11538;-48
2021/09/07 23:29:36;;;;;;;;;347.00;320.33;;;;;;;;2781208;51;8779;-48
2021/09/07 23:32:02;;;;;;;;;365.25;320.75;;;;;;;;2779966;51;8762;-49
2021/09/07 23:34:28;;;;;;;;;451.00;392.33;;;;;;;;2779744;51;8789;-46
2021/09/07 23:36:54;;;;;;;;;604.20;507.20;;;;;;;;2779104;51;11562;-47
2021/09/07 23:39:20;;;;;;;;;404.00;355.75;;;;;;;;2779510;51;8771;-47
2021/09/07 23:41:45;;;;;;;;;422.75;370.50;;;;;;;;2779574;51;8851;-47
2021/09/07 23:44:11;;;;;;;;;411.50;363.50;;;;;;;;2779568;51;8785;-47
2021/09/07 23:46:37;;;;;;;;;429.50;385.00;;;;;;;;2779472;51;8781;-46
2021/09/07 23:49:04;;;;;;;;;444.50;384.25;;;;;;;;2779399;51;11552;-48
2021/09/07 23:51:30;;;;;;;;;429.25;383.75;;;;;;;;2779974;51;8762;-47
2021/09/07 23:53:56;;;;;;;;;431.50;363.00;;;;;;;;2779716;51;8763;-47
2021/09/07 23:56:21;;;;;;;;;413.50;365.00;;;;;;;;2779488;51;9408;-47
2021/09/07 23:58:47;;;;;;;;;429.75;367.75;;;;;;;;2779466;51;8778;-47
